sensor_id;sensor_type;location;lat;lon;timestamp;pressure;altitude;pressure_sealevel;temperature;humidity
14204;BME280;7185;51.854;6.622;2022-12-18T00:01:15;102621.94;;;-5.35;100.00
14204;BME280;7185;51.854;6.622;2022-12-18T00:03:47;102624.78;;;-5.42;100.00
14204;BME280;7185;51.854;6.622;2022-12-18T00:06:19;102630.81;;;-5.41;100.00
14204;BME280;7185;51.854;6.622;2022-12-18T00:08:52;102628.75;;;-5.46;100.00
14204;BME280;7185;51.854;6.622;2022-12-18T00:11:26;102629.66;;;-5.45;100.00
14204;BME280;7185;51.854;6.622;2022-12-18T00:13:59;102630.56;;;-5.45;100.00
14204;BME280;7185;51.854;6.622;2022-12-18T00:16:31;102627.63;;;-5.49;100.00
14204;BME280;7185;51.854;6.622;2022-12-18T00:19:05;102627.78;;;-5.48;100.00
14204;BME280;7185;51.854;6.622;2022-12-18T00:21:40;102632.34;;;-5.44;100.00
14204;BME280;7185;51.854;6.622;2022-12-18T00:24:13;102625.91;;;-5.38;100.00
14204;BME280;7185;51.854;6.622;2022-12-18T00:26:47;102614.50;;;-5.54;100.00
14204;BME280;7185;51.854;6.622;2022-12-18T00:29:18;102610.56;;;-5.61;100.00
14204;BME280;7185;51.854;6.622;2022-12-18T00:31:50;102608.16;;;-5.69;100.00
14204;BME280;7185;51.854;6.622;2022-12-18T00:34:22;102602.69;;;-5.84;100.00
14204;BME280;7185;51.854;6.622;2022-12-18T00:36:53;102609.75;;;-5.92;100.00
14204;BME280;7185;51.854;6.622;2022-12-18T00:39:26;102612.28;;;-5.92;100.00
14204;BME280;7185;51.854;6.622;2022-12-18T00:41:58;102622.25;;;-5.85;100.00
14204;BME280;7185;51.854;6.622;2022-12-18T00:44:47;102609.47;;;-5.74;100.00
14204;BME280;7185;51.854;6.622;2022-12-18T00:47:18;102614.81;;;-5.71;100.00
14204;BME280;7185;51.854;6.622;2022-12-18T00:49:50;102612.22;;;-5.61;100.00
14204;BME280;7185;51.854;6.622;2022-12-18T00:52:22;102616.81;;;-5.57;100.00
14204;BME280;7185;51.854;6.622;2022-12-18T00:54:55;102619.84;;;-5.51;100.00
14204;BME280;7185;51.854;6.622;2022-12-18T00:57:26;102615.22;;;-5.45;100.00
14204;BME280;7185;51.854;6.622;2022-12-18T00:59:58;102616.34;;;-5.41;100.00
14204;BME280;7185;51.854;6.622;2022-12-18T01:02:29;102613.75;;;-5.63;100.00
14204;BME280;7185;51.854;6.622;2022-12-18T01:05:01;102609.19;;;-5.78;100.00
14204;BME280;7185;51.854;6.622;2022-12-18T01:07:33;102609.75;;;-5.92;100.00
14204;BME280;7185;51.854;6.622;2022-12-18T01:10:07;102616.16;;;-5.97;100.00
14204;BME280;7185;51.854;6.622;2022-12-18T01:12:39;102616.81;;;-6.00;100.00
14204;BME280;7185;51.854;6.622;2022-12-18T01:15:12;102616.16;;;-5.97;100.00
14204;BME280;7185;51.854;6.622;2022-12-18T01:17:44;102623.84;;;-6.07;100.00
14204;BME280;7185;51.854;6.622;2022-12-18T01:20:16;102620.25;;;-6.10;100.00
14204;BME280;7185;51.854;6.622;2022-12-18T01:22:48;102615.81;;;-6.12;100.00
14204;BME280;7185;51.854;6.622;2022-12-18T01:25:20;102613.50;;;-6.19;100.00
14204;BME280;7185;51.854;6.622;2022-12-18T01:27:52;102621.31;;;-6.18;100.00
14204;BME280;7185;51.854;6.622;2022-12-18T01:30:24;102619.53;;;-6.19;100.00
14204;BME280;7185;51.854;6.622;2022-12-18T01:32:55;102618.22;;;-6.14;100.00
14204;BME280;7185;51.854;6.622;2022-12-18T01:35:27;102610.56;;;-6.14;100.00
14204;BME280;7185;51.854;6.622;2022-12-18T01:37:59;102606.34;;;-6.03;100.00
14204;BME280;7185;51.854;6.622;2022-12-18T01:40:32;102605.16;;;-5.96;100.00
14204;BME280;7185;51.854;6.622;2022-12-18T01:43:03;102612.81;;;-5.96;100.00
14204;BME280;7185;51.854;6.622;2022-12-18T01:45:35;102608.13;;;-6.02;100.00
14204;BME280;7185;51.854;6.622;2022-12-18T01:48:07;102602.84;;;-5.93;100.00
14204;BME280;7185;51.854;6.622;2022-12-18T01:50:42;102601.88;;;-6.05;100.00
14204;BME280;7185;51.854;6.622;2022-12-18T01:53:17;102601.69;;;-5.97;100.00
14204;BME280;7185;51.854;6.622;2022-12-18T01:55:53;102616.44;;;-6.04;100.00
14204;BME280;7185;51.854;6.622;2022-12-18T01:58:30;102616.97;;;-6.19;100.00
14204;BME280;7185;51.854;6.622;2022-12-18T02:01:04;102610.34;;;-6.17;100.00
14204;BME280;7185;51.854;6.622;2022-12-18T02:03:36;102615.44;;;-6.17;100.00
14204;BME280;7185;51.854;6.622;2022-12-18T02:06:12;102614.16;;;-6.12;100.00
14204;BME280;7185;51.854;6.622;2022-12-18T02:08:51;102616.72;;;-6.12;100.00
14204;BME280;7185;51.854;6.622;2022-12-18T02:11:39;102617.84;;;-6.08;100.00
14204;BME280;7185;51.854;6.622;2022-12-18T02:14:18;102616.97;;;-6.19;100.00
14204;BME280;7185;51.854;6.622;2022-12-18T02:17:06;102622.31;;;-6.16;100.00
14204;BME280;7185;51.854;6.622;2022-12-18T02:19:50;102615.91;;;-6.00;100.00
14204;BME280;7185;51.854;6.622;2022-12-18T02:22:31;102613.19;;;-5.92;100.00
14204;BME280;7185;51.854;6.622;2022-12-18T02:25:13;102612.19;;;-5.94;100.00
14204;BME280;7185;51.854;6.622;2022-12-18T02:27:52;102613.91;;;-6.04;100.00
14204;BME280;7185;51.854;6.622;2022-12-18T02:30:26;102614.28;;;-6.10;100.00
14204;BME280;7185;51.854;6.622;2022-12-18T02:33:04;102601.38;;;-6.12;100.00
14204;BME280;7185;51.854;6.622;2022-12-18T02:35:36;102598.94;;;-6.10;100.00
14204;BME280;7185;51.854;6.622;2022-12-18T02:38:11;102602.91;;;-6.14;100.00
14204;BME280;7185;51.854;6.622;2022-12-18T02:40:44;102604.94;;;-6.10;100.00
14204;BME280;7185;51.854;6.622;2022-12-18T02:43:17;102599.56;;;-6.02;100.00
14204;BME280;7185;51.854;6.622;2022-12-18T02:45:52;102604.72;;;-6.13;100.00
14204;BME280;7185;51.854;6.622;2022-12-18T02:48:28;102605.72;;;-6.21;100.00
14204;BME280;7185;51.854;6.622;2022-12-18T02:51:06;102601.28;;;-6.23;100.00
14204;BME280;7185;51.854;6.622;2022-12-18T02:53:43;102604.47;;;-6.26;100.00
14204;BME280;7185;51.854;6.622;2022-12-18T02:56:19;102606.75;;;-6.29;100.00
14204;BME280;7185;51.854;6.622;2022-12-18T02:58:58;102606.25;;;-6.25;100.00
14204;BME280;7185;51.854;6.622;2022-12-18T03:01:34;102609.84;;;-6.33;100.00
14204;BME280;7185;51.854;6.622;2022-12-18T03:04:09;102607.78;;;-6.37;100.00
14204;BME280;7185;51.854;6.622;2022-12-18T03:06:45;102607.28;;;-6.33;100.00
14204;BME280;7185;51.854;6.622;2022-12-18T03:09:21;102590.69;;;-6.38;100.00
14204;BME280;7185;51.854;6.622;2022-12-18T03:11:56;102593.50;;;-6.25;100.00
14204;BME280;7185;51.854;6.622;2022-12-18T03:14:50;102590.03;;;-6.15;100.00
14204;BME280;7185;51.854;6.622;2022-12-18T03:17:25;102576.34;;;-6.05;100.00
14204;BME280;7185;51.854;6.622;2022-12-18T03:20:02;102579.66;;;-6.06;100.00
14204;BME280;7185;51.854;6.622;2022-12-18T03:22:37;102573.78;;;-6.16;100.00
14204;BME280;7185;51.854;6.622;2022-12-18T03:25:11;102578.56;;;-6.20;100.00
14204;BME280;7185;51.854;6.622;2022-12-18T03:27:46;102580.84;;;-6.23;100.00
14204;BME280;7185;51.854;6.622;2022-12-18T03:30:20;102587.84;;;-6.21;100.00
14204;BME280;7185;51.854;6.622;2022-12-18T03:33:00;102584.28;;;-6.23;100.00
14204;BME280;7185;51.854;6.622;2022-12-18T03:35:37;102584.03;;;-6.36;100.00
14204;BME280;7185;51.854;6.622;2022-12-18T03:38:10;102583.28;;;-6.25;100.00
14204;BME280;7185;51.854;6.622;2022-12-18T03:40:48;102588.38;;;-6.25;100.00
14204;BME280;7185;51.854;6.622;2022-12-18T03:43:33;102583.53;;;-6.32;100.00
14204;BME280;7185;51.854;6.622;2022-12-18T03:46:12;102580.34;;;-6.40;100.00
14204;BME280;7185;51.854;6.622;2022-12-18T03:48:52;102583.28;;;-6.35;100.00
14204;BME280;7185;51.854;6.622;2022-12-18T03:51:32;102577.41;;;-6.34;100.00
14204;BME280;7185;51.854;6.622;2022-12-18T03:54:08;102575.38;;;-6.38;100.00
14204;BME280;7185;51.854;6.622;2022-12-18T03:56:44;102577.28;;;-6.46;100.00
14204;BME280;7185;51.854;6.622;2022-12-18T03:59:18;102573.31;;;-6.43;100.00
14204;BME280;7185;51.854;6.622;2022-12-18T04:01:52;102569.75;;;-6.45;100.00
14204;BME280;7185;51.854;6.622;2022-12-18T04:04:27;102572.94;;;-6.47;100.00
14204;BME280;7185;51.854;6.622;2022-12-18T04:07:00;102572.19;;;-6.46;100.00
14204;BME280;7185;51.854;6.622;2022-12-18T04:09:33;102562.09;;;-6.55;100.00
14204;BME280;7185;51.854;6.622;2022-12-18T04:12:05;102563.63;;;-6.57;100.00
14204;BME280;7185;51.854;6.622;2022-12-18T04:14:37;102570.00;;;-6.42;100.00
14204;BME280;7185;51.854;6.622;2022-12-18T04:17:10;102572.81;;;-6.38;100.00
14204;BME280;7185;51.854;6.622;2022-12-18T04:19:41;102571.53;;;-6.33;100.00
14204;BME280;7185;51.854;6.622;2022-12-18T04:22:13;102565.41;;;-6.35;100.00
14204;BME280;7185;51.854;6.622;2022-12-18T04:24:45;102560.19;;;-6.37;100.00
14204;BME280;7185;51.854;6.622;2022-12-18T04:27:16;102562.09;;;-6.34;100.00
14204;BME280;7185;51.854;6.622;2022-12-18T04:29:48;102563.25;;;-6.51;100.00
14204;BME280;7185;51.854;6.622;2022-12-18T04:32:21;102562.34;;;-6.42;100.00
14204;BME280;7185;51.854;6.622;2022-12-18T04:34:52;102561.06;;;-6.26;100.00
14204;BME280;7185;51.854;6.622;2022-12-18T04:37:24;102559.28;;;-6.27;100.00
14204;BME280;7185;51.854;6.622;2022-12-18T04:39:55;102564.91;;;-6.42;100.00
14204;BME280;7185;51.854;6.622;2022-12-18T04:42:27;102558.00;;;-6.32;100.00
14204;BME280;7185;51.854;6.622;2022-12-18T04:44:58;102553.91;;;-6.30;100.00
14204;BME280;7185;51.854;6.622;2022-12-18T04:47:31;102549.31;;;-6.24;100.00
14204;BME280;7185;51.854;6.622;2022-12-18T04:50:04;102546.50;;;-6.37;100.00
14204;BME280;7185;51.854;6.622;2022-12-18T04:52:35;102551.88;;;-6.34;100.00
14204;BME280;7185;51.854;6.622;2022-12-18T04:55:07;102544.72;;;-6.28;100.00
14204;BME280;7185;51.854;6.622;2022-12-18T04:57:39;102547.28;;;-6.28;100.00
14204;BME280;7185;51.854;6.622;2022-12-18T05:00:11;102545.63;;;-6.38;100.00
14204;BME280;7185;51.854;6.622;2022-12-18T05:02:44;102534.16;;;-6.43;100.00
14204;BME280;7185;51.854;6.622;2022-12-18T05:05:16;102535.81;;;-6.44;100.00
14204;BME280;7185;51.854;6.622;2022-12-18T05:07:48;102532.50;;;-6.32;100.00
14204;BME280;7185;51.854;6.622;2022-12-18T05:10:19;102533.75;;;-6.37;100.00
14204;BME280;7185;51.854;6.622;2022-12-18T05:12:51;102536.69;;;-6.33;100.00
14204;BME280;7185;51.854;6.622;2022-12-18T05:15:32;102550.88;;;-6.47;100.00
14204;BME280;7185;51.854;6.622;2022-12-18T05:18:06;102536.44;;;-6.46;100.00
14204;BME280;7185;51.854;6.622;2022-12-18T05:20:37;102542.69;;;-6.43;100.00
14204;BME280;7185;51.854;6.622;2022-12-18T05:23:09;102545.25;;;-6.43;100.00
14204;BME280;7185;51.854;6.622;2022-12-18T05:25:40;102546.66;;;-6.46;100.00
14204;BME280;7185;51.854;6.622;2022-12-18T05:28:12;102547.94;;;-6.51;100.00
14204;BME280;7185;51.854;6.622;2022-12-18T05:30:47;102551.13;;;-6.54;100.00
14204;BME280;7185;51.854;6.622;2022-12-18T05:33:22;102553.16;;;-6.50;100.00
14204;BME280;7185;51.854;6.622;2022-12-18T05:35:55;102553.69;;;-6.54;100.00
14204;BME280;7185;51.854;6.622;2022-12-18T05:38:27;102569.88;;;-6.53;100.00
14204;BME280;7185;51.854;6.622;2022-12-18T05:40:59;102560.09;;;-6.59;100.00
14204;BME280;7185;51.854;6.622;2022-12-18T05:43:31;102564.91;;;-6.62;100.00
14204;BME280;7185;51.854;6.622;2022-12-18T05:46:05;102572.97;;;-6.58;100.00
14204;BME280;7185;51.854;6.622;2022-12-18T05:48:38;102584.03;;;-6.57;100.00
14204;BME280;7185;51.854;6.622;2022-12-18T05:51:13;102593.50;;;-6.56;100.00
14204;BME280;7185;51.854;6.622;2022-12-18T05:53:45;102588.38;;;-6.56;100.00
14204;BME280;7185;51.854;6.622;2022-12-18T05:56:19;102586.09;;;-6.53;100.00
14204;BME280;7185;51.854;6.622;2022-12-18T05:58:52;102585.59;;;-6.59;100.00
14204;BME280;7185;51.854;6.622;2022-12-18T06:01:26;102588.41;;;-6.66;100.00
14204;BME280;7185;51.854;6.622;2022-12-18T06:03:59;102595.78;;;-6.69;100.00
14204;BME280;7185;51.854;6.622;2022-12-18T06:06:30;102593.13;;;-6.71;100.00
14204;BME280;7185;51.854;6.622;2022-12-18T06:09:03;102597.06;;;-6.64;100.00
14204;BME280;7185;51.854;6.622;2022-12-18T06:11:38;102595.53;;;-6.62;100.00
14204;BME280;7185;51.854;6.622;2022-12-18T06:14:10;102589.16;;;-6.57;100.00
14204;BME280;7185;51.854;6.622;2022-12-18T06:16:41;102596.41;;;-6.62;100.00
14204;BME280;7185;51.854;6.622;2022-12-18T06:19:16;102593.88;;;-6.62;100.00
14204;BME280;7185;51.854;6.622;2022-12-18T06:21:47;102585.47;;;-6.50;100.00
14204;BME280;7185;51.854;6.622;2022-12-18T06:24:19;102580.34;;;-6.50;100.00
14204;BME280;7185;51.854;6.622;2022-12-18T06:26:51;102574.09;;;-6.54;100.00
14204;BME280;7185;51.854;6.622;2022-12-18T06:29:22;102581.00;;;-6.53;100.00
14204;BME280;7185;51.854;6.622;2022-12-18T06:31:54;102578.56;;;-6.51;100.00
14204;BME280;7185;51.854;6.622;2022-12-18T06:34:27;102569.66;;;-6.57;100.00
14204;BME280;7185;51.854;6.622;2022-12-18T06:36:58;102570.28;;;-6.59;100.00
14204;BME280;7185;51.854;6.622;2022-12-18T06:39:30;102565.16;;;-6.49;100.00
14204;BME280;7185;51.854;6.622;2022-12-18T06:42:02;102564.66;;;-6.55;100.00
14204;BME280;7185;51.854;6.622;2022-12-18T06:44:34;102566.97;;;-6.48;100.00
14204;BME280;7185;51.854;6.622;2022-12-18T06:47:05;102555.97;;;-6.36;100.00
14204;BME280;7185;51.854;6.622;2022-12-18T06:49:38;102545.25;;;-6.32;100.00
14204;BME280;7185;51.854;6.622;2022-12-18T06:52:10;102538.47;;;-6.21;100.00
14204;BME280;7185;51.854;6.622;2022-12-18T06:54:41;102540.63;;;-6.26;100.00
14204;BME280;7185;51.854;6.622;2022-12-18T06:57:13;102539.34;;;-6.21;100.00
14204;BME280;7185;51.854;6.622;2022-12-18T06:59:44;102543.41;;;-6.13;100.00
14204;BME280;7185;51.854;6.622;2022-12-18T07:02:16;102538.31;;;-6.13;100.00
14204;BME280;7185;51.854;6.622;2022-12-18T07:04:51;102537.56;;;-6.12;100.00
14204;BME280;7185;51.854;6.622;2022-12-18T07:07:23;102538.81;;;-6.06;100.00
14204;BME280;7185;51.854;6.622;2022-12-18T07:09:55;102538.81;;;-6.06;100.00
14204;BME280;7185;51.854;6.622;2022-12-18T07:12:26;102534.19;;;-6.00;100.00
14204;BME280;7185;51.854;6.622;2022-12-18T07:14:58;102525.50;;;-6.02;100.00
14204;BME280;7185;51.854;6.622;2022-12-18T07:17:29;102523.19;;;-5.99;100.00
14204;BME280;7185;51.854;6.622;2022-12-18T07:20:03;102530.81;;;-5.89;100.00
14204;BME280;7185;51.854;6.622;2022-12-18T07:22:34;102540.06;;;-6.01;100.00
14204;BME280;7185;51.854;6.622;2022-12-18T07:25:07;102531.84;;;-5.97;100.00
14204;BME280;7185;51.854;6.622;2022-12-18T07:27:38;102535.19;;;-5.98;100.00
14204;BME280;7185;51.854;6.622;2022-12-18T07:30:11;102527.06;;;-6.04;100.00
14204;BME280;7185;51.854;6.622;2022-12-18T07:32:42;102520.38;;;-6.02;100.00
14204;BME280;7185;51.854;6.622;2022-12-18T07:35:15;102526.53;;;-6.00;100.00
14204;BME280;7185;51.854;6.622;2022-12-18T07:37:47;102526.28;;;-6.03;100.00
14204;BME280;7185;51.854;6.622;2022-12-18T07:40:18;102530.19;;;-5.97;100.00
14204;BME280;7185;51.854;6.622;2022-12-18T07:42:50;102527.75;;;-5.95;100.00
14204;BME280;7185;51.854;6.622;2022-12-18T07:45:21;102536.91;;;-5.87;100.00
14204;BME280;7185;51.854;6.622;2022-12-18T07:47:53;102534.06;;;-5.80;100.00
14204;BME280;7185;51.854;6.622;2022-12-18T07:50:26;102530.53;;;-5.82;100.00
14204;BME280;7185;51.854;6.622;2022-12-18T07:52:57;102530.66;;;-5.80;100.00
14204;BME280;7185;51.854;6.622;2022-12-18T07:55:33;102534.06;;;-5.80;100.00
14204;BME280;7185;51.854;6.622;2022-12-18T07:58:05;102538.41;;;-5.79;100.00
14204;BME280;7185;51.854;6.622;2022-12-18T08:00:37;102539.81;;;-5.72;100.00
14204;BME280;7185;51.854;6.622;2022-12-18T08:03:08;102534.81;;;-5.70;100.00
14204;BME280;7185;51.854;6.622;2022-12-18T08:05:41;102538.97;;;-5.83;100.00
14204;BME280;7185;51.854;6.622;2022-12-18T08:08:13;102531.06;;;-5.64;100.00
14204;BME280;7185;51.854;6.622;2022-12-18T08:10:45;102530.16;;;-5.54;100.00
14204;BME280;7185;51.854;6.622;2022-12-18T08:13:17;102512.47;;;-5.51;100.00
14204;BME280;7185;51.854;6.622;2022-12-18T08:15:55;102507.16;;;-5.54;100.00
14204;BME280;7185;51.854;6.622;2022-12-18T08:18:27;102500.75;;;-5.59;100.00
14204;BME280;7185;51.854;6.622;2022-12-18T08:21:08;102498.09;;;-5.38;100.00
14204;BME280;7185;51.854;6.622;2022-12-18T08:23:41;102484.13;;;-5.32;100.00
14204;BME280;7185;51.854;6.622;2022-12-18T08:26:13;102476.03;;;-5.26;100.00
14204;BME280;7185;51.854;6.622;2022-12-18T08:28:45;102462.88;;;-4.97;100.00
14204;BME280;7185;51.854;6.622;2022-12-18T08:31:17;102468.69;;;-4.75;100.00
14204;BME280;7185;51.854;6.622;2022-12-18T08:33:49;102470.72;;;-4.71;100.00
14204;BME280;7185;51.854;6.622;2022-12-18T08:36:23;102474.50;;;-4.78;100.00
14204;BME280;7185;51.854;6.622;2022-12-18T08:38:56;102473.41;;;-4.58;100.00
14204;BME280;7185;51.854;6.622;2022-12-18T08:41:27;102469.84;;;-4.60;100.00
14204;BME280;7185;51.854;6.622;2022-12-18T08:43:59;102478.31;;;-4.37;100.00
14204;BME280;7185;51.854;6.622;2022-12-18T08:46:48;102485.00;;;-4.16;100.00
14204;BME280;7185;51.854;6.622;2022-12-18T08:49:20;102484.66;;;-4.08;100.00
14204;BME280;7185;51.854;6.622;2022-12-18T08:51:55;102478.28;;;-3.90;100.00
14204;BME280;7185;51.854;6.622;2022-12-18T08:54:27;102473.03;;;-3.79;100.00
14204;BME280;7185;51.854;6.622;2022-12-18T08:56:59;102466.38;;;-3.77;100.00
14204;BME280;7185;51.854;6.622;2022-12-18T08:59:30;102465.56;;;-3.76;100.00
14204;BME280;7185;51.854;6.622;2022-12-18T09:02:02;102466.00;;;-3.70;100.00
14204;BME280;7185;51.854;6.622;2022-12-18T09:04:33;102458.22;;;-3.46;100.00
14204;BME280;7185;51.854;6.622;2022-12-18T09:07:06;102457.22;;;-3.48;100.00
14204;BME280;7185;51.854;6.622;2022-12-18T09:09:38;102452.72;;;-3.39;100.00
14204;BME280;7185;51.854;6.622;2022-12-18T09:12:09;102451.22;;;-3.49;100.00
14204;BME280;7185;51.854;6.622;2022-12-18T09:14:41;102457.75;;;-3.15;100.00
14204;BME280;7185;51.854;6.622;2022-12-18T09:17:12;102459.97;;;-3.08;100.00
14204;BME280;7185;51.854;6.622;2022-12-18T09:19:44;102475.69;;;-3.29;100.00
14204;BME280;7185;51.854;6.622;2022-12-18T09:22:17;102467.06;;;-3.04;100.00
14204;BME280;7185;51.854;6.622;2022-12-18T09:24:48;102470.31;;;-2.54;100.00
14204;BME280;7185;51.854;6.622;2022-12-18T09:27:20;102467.19;;;-2.23;100.00
14204;BME280;7185;51.854;6.622;2022-12-18T09:29:51;102466.38;;;-2.09;100.00
14204;BME280;7185;51.854;6.622;2022-12-18T09:32:23;102470.31;;;-2.01;100.00
14204;BME280;7185;51.854;6.622;2022-12-18T09:34:54;102467.09;;;-1.70;100.00
14204;BME280;7185;51.854;6.622;2022-12-18T09:37:27;102464.94;;;-1.77;100.00
14204;BME280;7185;51.854;6.622;2022-12-18T09:39:59;102461.00;;;-1.43;100.00
14204;BME280;7185;51.854;6.622;2022-12-18T09:42:31;102458.81;;;-1.22;100.00
14204;BME280;7185;51.854;6.622;2022-12-18T09:45:03;102457.88;;;-0.94;100.00
14204;BME280;7185;51.854;6.622;2022-12-18T09:47:36;102464.88;;;-1.07;100.00
14204;BME280;7185;51.854;6.622;2022-12-18T09:50:19;102455.06;;;-0.54;100.00
14204;BME280;7185;51.854;6.622;2022-12-18T09:52:58;102451.84;;;-0.50;100.00
14204;BME280;7185;51.854;6.622;2022-12-18T09:55:32;102431.03;;;-0.38;100.00
14204;BME280;7185;51.854;6.622;2022-12-18T09:58:07;102415.84;;;-0.17;100.00
14204;BME280;7185;51.854;6.622;2022-12-18T10:00:43;102423.91;;;-0.27;100.00
14204;BME280;7185;51.854;6.622;2022-12-18T10:03:15;102424.06;;;-0.24;100.00
14204;BME280;7185;51.854;6.622;2022-12-18T10:05:55;102411.16;;;-0.56;100.00
14204;BME280;7185;51.854;6.622;2022-12-18T10:08:34;102418.28;;;-0.20;100.00
14204;BME280;7185;51.854;6.622;2022-12-18T10:11:30;102422.38;;;0.08;100.00
14204;BME280;7185;51.854;6.622;2022-12-18T10:14:09;102414.97;;;0.14;100.00
14204;BME280;7185;51.854;6.622;2022-12-18T10:16:56;102399.13;;;-0.09;100.00
14204;BME280;7185;51.854;6.622;2022-12-18T10:19:41;102402.56;;;-0.25;100.00
14204;BME280;7185;51.854;6.622;2022-12-18T10:22:28;102398.47;;;-0.21;100.00
14204;BME280;7185;51.854;6.622;2022-12-18T10:25:17;102396.97;;;-0.79;100.00
14204;BME280;7185;51.854;6.622;2022-12-18T10:27:52;102399.09;;;-0.57;100.00
14204;BME280;7185;51.854;6.622;2022-12-18T10:30:25;102389.84;;;-0.53;100.00
14204;BME280;7185;51.854;6.622;2022-12-18T10:33:00;102389.81;;;-0.38;100.00
14204;BME280;7185;51.854;6.622;2022-12-18T10:36:01;102383.97;;;-0.51;100.00
14204;BME280;7185;51.854;6.622;2022-12-18T10:38:35;102378.78;;;-0.36;100.00
14204;BME280;7185;51.854;6.622;2022-12-18T10:41:24;102367.72;;;-0.18;100.00
14204;BME280;7185;51.854;6.622;2022-12-18T10:44:16;102369.25;;;-0.05;100.00
14204;BME280;7185;51.854;6.622;2022-12-18T10:46:49;102371.63;;;-0.25;100.00
14204;BME280;7185;51.854;6.622;2022-12-18T10:49:23;102368.28;;;-0.07;100.00
14204;BME280;7185;51.854;6.622;2022-12-18T10:52:14;102362.56;;;0.48;100.00
14204;BME280;7185;51.854;6.622;2022-12-18T10:54:49;102350.38;;;0.62;100.00
14204;BME280;7185;51.854;6.622;2022-12-18T10:57:34;102338.91;;;0.91;100.00
14204;BME280;7185;51.854;6.622;2022-12-18T11:00:25;102329.78;;;0.98;100.00
14204;BME280;7185;51.854;6.622;2022-12-18T11:02:58;102340.66;;;0.74;100.00
14204;BME280;7185;51.854;6.622;2022-12-18T11:05:31;102337.53;;;0.63;100.00
14204;BME280;7185;51.854;6.622;2022-12-18T11:08:03;102330.44;;;0.59;100.00
14204;BME280;7185;51.854;6.622;2022-12-18T11:11:03;102317.13;;;0.01;100.00
14204;BME280;7185;51.854;6.622;2022-12-18T11:13:52;102307.44;;;0.29;100.00
14204;BME280;7185;51.854;6.622;2022-12-18T11:16:29;102298.25;;;-0.15;100.00
14204;BME280;7185;51.854;6.622;2022-12-18T11:19:24;102297.44;;;-0.14;100.00
14204;BME280;7185;51.854;6.622;2022-12-18T11:21:57;102305.06;;;-0.32;100.00
14204;BME280;7185;51.854;6.622;2022-12-18T11:24:31;102304.53;;;-0.26;100.00
14204;BME280;7185;51.854;6.622;2022-12-18T11:27:06;102306.47;;;-0.22;100.00
14204;BME280;7185;51.854;6.622;2022-12-18T11:29:50;102299.19;;;-0.29;100.00
14204;BME280;7185;51.854;6.622;2022-12-18T11:32:31;102302.09;;;-0.23;100.00
14204;BME280;7185;51.854;6.622;2022-12-18T11:35:13;102311.31;;;-0.12;100.00
14204;BME280;7185;51.854;6.622;2022-12-18T11:37:49;102302.50;;;-0.32;100.00
14204;BME280;7185;51.854;6.622;2022-12-18T11:40:27;102291.38;;;-0.31;100.00
14204;BME280;7185;51.854;6.622;2022-12-18T11:43:08;102293.16;;;-0.13;100.00
14204;BME280;7185;51.854;6.622;2022-12-18T11:45:48;102292.94;;;-0.02;100.00
14204;BME280;7185;51.854;6.622;2022-12-18T11:48:24;102293.25;;;-0.28;100.00
14204;BME280;7185;51.854;6.622;2022-12-18T11:51:00;102290.28;;;-0.36;100.00
14204;BME280;7185;51.854;6.622;2022-12-18T11:53:34;102282.94;;;-0.28;100.00
14204;BME280;7185;51.854;6.622;2022-12-18T11:56:25;102280.34;;;0.05;100.00
14204;BME280;7185;51.854;6.622;2022-12-18T11:59:07;102280.44;;;0.06;100.00
14204;BME280;7185;51.854;6.622;2022-12-18T12:01:48;102274.56;;;0.09;100.00
14204;BME280;7185;51.854;6.622;2022-12-18T12:04:42;102276.00;;;0.04;100.00
14204;BME280;7185;51.854;6.622;2022-12-18T12:07:24;102272.13;;;0.12;100.00
14204;BME280;7185;51.854;6.622;2022-12-18T12:10:12;102264.91;;;-0.12;100.00
14204;BME280;7185;51.854;6.622;2022-12-18T12:12:58;102259.34;;;-0.03;100.00
14204;BME280;7185;51.854;6.622;2022-12-18T12:15:38;102266.03;;;-0.07;100.00
14204;BME280;7185;51.854;6.622;2022-12-18T12:18:23;102256.50;;;-0.08;100.00
14204;BME280;7185;51.854;6.622;2022-12-18T12:21:03;102262.63;;;-0.06;100.00
14204;BME280;7185;51.854;6.622;2022-12-18T12:23:42;102252.63;;;0.17;100.00
14204;BME280;7185;51.854;6.622;2022-12-18T12:26:20;102244.16;;;0.20;100.00
14204;BME280;7185;51.854;6.622;2022-12-18T12:31:52;102228.22;;;-0.06;100.00
14204;BME280;7185;51.854;6.622;2022-12-18T12:34:34;102218.94;;;-0.03;100.00
14204;BME280;7185;51.854;6.622;2022-12-18T12:37:21;102217.81;;;0.09;100.00
14204;BME280;7185;51.854;6.622;2022-12-18T12:39:56;102210.88;;;0.08;100.00
14204;BME280;7185;51.854;6.622;2022-12-18T12:42:32;102209.84;;;0.04;100.00
14204;BME280;7185;51.854;6.622;2022-12-18T12:45:28;102218.75;;;0.11;100.00
14204;BME280;7185;51.854;6.622;2022-12-18T12:48:09;102212.41;;;0.04;100.00
14204;BME280;7185;51.854;6.622;2022-12-18T12:50:47;102210.19;;;0.28;100.00
14204;BME280;7185;51.854;6.622;2022-12-18T12:53:25;102215.19;;;0.25;100.00
14204;BME280;7185;51.854;6.622;2022-12-18T12:55:58;102222.63;;;0.19;100.00
14204;BME280;7185;51.854;6.622;2022-12-18T12:58:35;102211.03;;;0.11;100.00
14204;BME280;7185;51.854;6.622;2022-12-18T13:01:12;102206.94;;;0.32;100.00
14204;BME280;7185;51.854;6.622;2022-12-18T13:03:54;102203.41;;;0.30;100.00
14204;BME280;7185;51.854;6.622;2022-12-18T13:06:37;102200.47;;;0.41;100.00
14204;BME280;7185;51.854;6.622;2022-12-18T13:09:11;102186.91;;;0.27;100.00
14204;BME280;7185;51.854;6.622;2022-12-18T13:11:44;102191.84;;;0.22;100.00
14204;BME280;7185;51.854;6.622;2022-12-18T13:14:38;102191.22;;;0.10;100.00
14204;BME280;7185;51.854;6.622;2022-12-18T13:17:28;102177.69;;;0.32;100.00
14204;BME280;7185;51.854;6.622;2022-12-18T13:20:06;102182.19;;;0.36;100.00
14204;BME280;7185;51.854;6.622;2022-12-18T13:22:42;102179.41;;;0.31;100.00
14204;BME280;7185;51.854;6.622;2022-12-18T13:25:35;102184.13;;;0.40;100.00
14204;BME280;7185;51.854;6.622;2022-12-18T13:28:12;102172.47;;;0.30;100.00
14204;BME280;7185;51.854;6.622;2022-12-18T13:30:45;102171.31;;;0.25;100.00
14204;BME280;7185;51.854;6.622;2022-12-18T13:33:41;102168.41;;;0.36;100.00
14204;BME280;7185;51.854;6.622;2022-12-18T13:36:27;102164.50;;;0.44;100.00